sensor_id;sensor_type;location;lat;lon;timestamp;P1;durP1;ratioP1;P2;durP2;ratioP2
42832;SDS011;64089;51.478;5.692;2023-02-13T00:00:54;57.10;;;19.05;;
42832;SDS011;64089;51.478;5.692;2023-02-13T00:03:20;48.92;;;15.95;;
42832;SDS011;64089;51.478;5.692;2023-02-13T00:05:45;49.92;;;17.40;;
42832;SDS011;64089;51.478;5.692;2023-02-13T00:08:11;47.22;;;19.15;;
42832;SDS011;64089;51.478;5.692;2023-02-13T00:10:36;49.35;;;18.52;;
42832;SDS011;64089;51.478;5.692;2023-02-13T00:13:02;43.72;;;19.58;;
42832;SDS011;64089;51.478;5.692;2023-02-13T00:15:27;49.25;;;18.35;;
42832;SDS011;64089;51.478;5.692;2023-02-13T00:17:53;49.97;;;16.67;;
42832;SDS011;64089;51.478;5.692;2023-02-13T00:20:22;52.50;;;17.20;;
42832;SDS011;64089;51.478;5.692;2023-02-13T00:22:47;60.63;;;19.08;;
42832;SDS011;64089;51.478;5.692;2023-02-13T00:25:13;44.88;;;16.73;;
42832;SDS011;64089;51.478;5.692;2023-02-13T00:27:38;49.30;;;18.25;;
42832;SDS011;64089;51.478;5.692;2023-02-13T00:30:04;44.50;;;17.08;;
42832;SDS011;64089;51.478;5.692;2023-02-13T00:32:31;41.28;;;16.67;;
42832;SDS011;64089;51.478;5.692;2023-02-13T00:34:56;49.92;;;17.73;;
42832;SDS011;64089;51.478;5.692;2023-02-13T00:37:22;45.22;;;17.42;;
42832;SDS011;64089;51.478;5.692;2023-02-13T00:39:48;45.45;;;17.65;;
42832;SDS011;64089;51.478;5.692;2023-02-13T00:42:14;44.15;;;17.38;;
42832;SDS011;64089;51.478;5.692;2023-02-13T00:44:39;54.72;;;19.55;;
42832;SDS011;64089;51.478;5.692;2023-02-13T00:47:05;50.53;;;17.38;;
42832;SDS011;64089;51.478;5.692;2023-02-13T00:49:31;53.17;;;18.27;;
42832;SDS011;64089;51.478;5.692;2023-02-13T00:51:57;56.65;;;18.77;;
42832;SDS011;64089;51.478;5.692;2023-02-13T00:54:22;44.58;;;16.38;;
42832;SDS011;64089;51.478;5.692;2023-02-13T00:56:48;49.72;;;18.05;;
42832;SDS011;64089;51.478;5.692;2023-02-13T00:59:13;46.80;;;17.95;;
42832;SDS011;64089;51.478;5.692;2023-02-13T01:01:39;48.28;;;18.85;;
42832;SDS011;64089;51.478;5.692;2023-02-13T01:04:08;49.90;;;18.90;;
42832;SDS011;64089;51.478;5.692;2023-02-13T01:06:33;47.55;;;18.08;;
42832;SDS011;64089;51.478;5.692;2023-02-13T01:08:59;51.63;;;19.52;;
42832;SDS011;64089;51.478;5.692;2023-02-13T01:11:26;52.90;;;17.20;;
42832;SDS011;64089;51.478;5.692;2023-02-13T01:13:52;49.60;;;19.13;;
42832;SDS011;64089;51.478;5.692;2023-02-13T01:16:17;60.22;;;18.60;;
42832;SDS011;64089;51.478;5.692;2023-02-13T01:18:43;52.30;;;17.88;;
42832;SDS011;64089;51.478;5.692;2023-02-13T01:21:16;52.97;;;17.70;;
42832;SDS011;64089;51.478;5.692;2023-02-13T01:23:44;48.05;;;18.92;;
42832;SDS011;64089;51.478;5.692;2023-02-13T01:26:12;44.83;;;17.45;;
42832;SDS011;64089;51.478;5.692;2023-02-13T01:28:45;50.53;;;17.13;;
42832;SDS011;64089;51.478;5.692;2023-02-13T01:31:10;58.95;;;20.25;;
42832;SDS011;64089;51.478;5.692;2023-02-13T01:33:36;65.55;;;18.42;;
42832;SDS011;64089;51.478;5.692;2023-02-13T01:36:06;55.35;;;19.25;;
42832;SDS011;64089;51.478;5.692;2023-02-13T01:38:36;60.40;;;18.00;;
42832;SDS011;64089;51.478;5.692;2023-02-13T01:41:01;57.10;;;18.65;;
42832;SDS011;64089;51.478;5.692;2023-02-13T01:43:47;67.43;;;20.15;;
42832;SDS011;64089;51.478;5.692;2023-02-13T01:46:25;59.08;;;19.23;;
42832;SDS011;64089;51.478;5.692;2023-02-13T01:49:13;56.45;;;19.85;;
42832;SDS011;64089;51.478;5.692;2023-02-13T01:51:42;52.63;;;20.23;;
42832;SDS011;64089;51.478;5.692;2023-02-13T01:54:14;50.45;;;18.20;;
42832;SDS011;64089;51.478;5.692;2023-02-13T01:56:57;58.40;;;19.27;;
42832;SDS011;64089;51.478;5.692;2023-02-13T01:59:28;49.78;;;18.10;;
42832;SDS011;64089;51.478;5.692;2023-02-13T02:01:57;59.17;;;20.10;;
42832;SDS011;64089;51.478;5.692;2023-02-13T02:04:29;49.67;;;19.35;;
42832;SDS011;64089;51.478;5.692;2023-02-13T02:06:58;56.13;;;18.80;;
42832;SDS011;64089;51.478;5.692;2023-02-13T02:09:29;45.20;;;18.17;;
42832;SDS011;64089;51.478;5.692;2023-02-13T02:12:18;49.85;;;17.88;;
42832;SDS011;64089;51.478;5.692;2023-02-13T02:14:54;48.65;;;17.88;;
42832;SDS011;64089;51.478;5.692;2023-02-13T02:17:23;63.95;;;18.75;;
42832;SDS011;64089;51.478;5.692;2023-02-13T02:34:04;55.17;;;20.70;;
42832;SDS011;64089;51.478;5.692;2023-02-13T02:39:09;40.95;;;16.00;;
42832;SDS011;64089;51.478;5.692;2023-02-13T02:42:15;51.28;;;17.80;;
42832;SDS011;64089;51.478;5.692;2023-02-13T02:55:45;46.70;;;18.17;;
42832;SDS011;64089;51.478;5.692;2023-02-13T02:58:18;55.40;;;19.17;;
42832;SDS011;64089;51.478;5.692;2023-02-13T03:01:09;48.70;;;19.55;;
42832;SDS011;64089;51.478;5.692;2023-02-13T03:03:56;51.20;;;17.50;;
42832;SDS011;64089;51.478;5.692;2023-02-13T03:06:52;45.92;;;16.52;;
42832;SDS011;64089;51.478;5.692;2023-02-13T03:09:24;49.25;;;17.25;;
42832;SDS011;64089;51.478;5.692;2023-02-13T03:12:12;38.00;;;15.65;;
42832;SDS011;64089;51.478;5.692;2023-02-13T03:15:02;47.70;;;18.70;;
42832;SDS011;64089;51.478;5.692;2023-02-13T03:17:29;48.28;;;19.63;;
42832;SDS011;64089;51.478;5.692;2023-02-13T03:28:39;55.03;;;19.27;;
42832;SDS011;64089;51.478;5.692;2023-02-13T03:34:29;53.88;;;18.92;;
42832;SDS011;64089;51.478;5.692;2023-02-13T03:37:32;49.78;;;17.58;;
42832;SDS011;64089;51.478;5.692;2023-02-13T03:40:30;47.78;;;17.42;;
42832;SDS011;64089;51.478;5.692;2023-02-13T03:43:57;44.33;;;17.90;;
42832;SDS011;64089;51.478;5.692;2023-02-13T03:46:36;51.17;;;18.08;;
42832;SDS011;64089;51.478;5.692;2023-02-13T03:49:06;53.92;;;17.63;;
42832;SDS011;64089;51.478;5.692;2023-02-13T03:51:55;50.58;;;17.48;;
42832;SDS011;64089;51.478;5.692;2023-02-13T03:54:49;48.60;;;18.42;;
42832;SDS011;64089;51.478;5.692;2023-02-13T03:57:37;45.47;;;17.73;;
42832;SDS011;64089;51.478;5.692;2023-02-13T04:00:24;49.78;;;18.52;;
42832;SDS011;64089;51.478;5.692;2023-02-13T04:02:56;45.40;;;17.55;;
42832;SDS011;64089;51.478;5.692;2023-02-13T04:05:29;43.60;;;15.70;;
42832;SDS011;64089;51.478;5.692;2023-02-13T04:08:00;50.80;;;18.13;;
42832;SDS011;64089;51.478;5.692;2023-02-13T04:10:27;49.60;;;18.92;;
42832;SDS011;64089;51.478;5.692;2023-02-13T04:15:37;46.00;;;16.75;;
42832;SDS011;64089;51.478;5.692;2023-02-13T04:20:37;49.72;;;17.17;;
42832;SDS011;64089;51.478;5.692;2023-02-13T04:23:05;41.47;;;16.25;;
42832;SDS011;64089;51.478;5.692;2023-02-13T04:25:32;43.47;;;17.63;;
42832;SDS011;64089;51.478;5.692;2023-02-13T04:27:58;43.17;;;18.08;;
42832;SDS011;64089;51.478;5.692;2023-02-13T04:30:24;41.25;;;16.20;;
42832;SDS011;64089;51.478;5.692;2023-02-13T04:32:49;40.50;;;15.23;;
42832;SDS011;64089;51.478;5.692;2023-02-13T04:35:16;47.63;;;16.42;;
42832;SDS011;64089;51.478;5.692;2023-02-13T04:37:42;44.75;;;16.83;;
42832;SDS011;64089;51.478;5.692;2023-02-13T04:40:08;44.00;;;16.63;;
42832;SDS011;64089;51.478;5.692;2023-02-13T04:42:35;49.65;;;16.52;;
42832;SDS011;64089;51.478;5.692;2023-02-13T04:45:00;46.30;;;17.55;;
42832;SDS011;64089;51.478;5.692;2023-02-13T04:47:26;49.78;;;16.25;;
42832;SDS011;64089;51.478;5.692;2023-02-13T04:49:51;45.92;;;16.33;;
42832;SDS011;64089;51.478;5.692;2023-02-13T04:52:17;40.80;;;16.05;;
42832;SDS011;64089;51.478;5.692;2023-02-13T04:54:43;44.20;;;17.63;;
42832;SDS011;64089;51.478;5.692;2023-02-13T04:57:11;43.25;;;17.52;;
42832;SDS011;64089;51.478;5.692;2023-02-13T04:59:37;39.05;;;16.48;;
42832;SDS011;64089;51.478;5.692;2023-02-13T05:02:03;47.85;;;16.67;;
42832;SDS011;64089;51.478;5.692;2023-02-13T05:04:29;39.05;;;15.38;;
42832;SDS011;64089;51.478;5.692;2023-02-13T05:06:54;45.35;;;16.48;;
42832;SDS011;64089;51.478;5.692;2023-02-13T05:09:20;50.90;;;17.83;;
42832;SDS011;64089;51.478;5.692;2023-02-13T05:11:45;41.28;;;16.55;;
42832;SDS011;64089;51.478;5.692;2023-02-13T05:14:11;41.45;;;16.48;;
42832;SDS011;64089;51.478;5.692;2023-02-13T05:16:37;39.20;;;14.95;;
42832;SDS011;64089;51.478;5.692;2023-02-13T05:19:02;40.42;;;16.63;;
42832;SDS011;64089;51.478;5.692;2023-02-13T05:21:28;44.92;;;15.48;;
42832;SDS011;64089;51.478;5.692;2023-02-13T05:24:12;35.78;;;14.23;;
42832;SDS011;64089;51.478;5.692;2023-02-13T05:26:38;40.58;;;14.68;;
42832;SDS011;64089;51.478;5.692;2023-02-13T05:29:03;39.53;;;15.77;;
42832;SDS011;64089;51.478;5.692;2023-02-13T05:31:54;39.20;;;14.70;;
42832;SDS011;64089;51.478;5.692;2023-02-13T05:34:22;39.25;;;15.18;;
42832;SDS011;64089;51.478;5.692;2023-02-13T05:36:49;35.45;;;14.55;;
42832;SDS011;64089;51.478;5.692;2023-02-13T05:39:15;39.95;;;15.15;;
42832;SDS011;64089;51.478;5.692;2023-02-13T05:41:41;42.83;;;15.32;;
42832;SDS011;64089;51.478;5.692;2023-02-13T05:44:07;50.17;;;15.50;;
42832;SDS011;64089;51.478;5.692;2023-02-13T05:46:33;38.90;;;16.48;;
42832;SDS011;64089;51.478;5.692;2023-02-13T05:48:59;37.90;;;15.43;;
42832;SDS011;64089;51.478;5.692;2023-02-13T05:51:24;37.80;;;15.05;;
42832;SDS011;64089;51.478;5.692;2023-02-13T05:53:50;39.65;;;15.70;;
42832;SDS011;64089;51.478;5.692;2023-02-13T05:56:15;41.58;;;16.08;;
42832;SDS011;64089;51.478;5.692;2023-02-13T05:58:41;35.60;;;13.95;;
42832;SDS011;64089;51.478;5.692;2023-02-13T06:01:07;36.05;;;13.05;;
42832;SDS011;64089;51.478;5.692;2023-02-13T06:03:32;48.78;;;14.85;;
42832;SDS011;64089;51.478;5.692;2023-02-13T06:05:58;38.83;;;14.13;;
42832;SDS011;64089;51.478;5.692;2023-02-13T06:08:24;42.90;;;14.93;;
42832;SDS011;64089;51.478;5.692;2023-02-13T06:10:50;36.70;;;14.80;;
42832;SDS011;64089;51.478;5.692;2023-02-13T06:13:16;41.83;;;15.15;;
42832;SDS011;64089;51.478;5.692;2023-02-13T06:15:42;37.70;;;15.60;;
42832;SDS011;64089;51.478;5.692;2023-02-13T06:18:08;47.33;;;15.18;;
42832;SDS011;64089;51.478;5.692;2023-02-13T06:20:34;36.00;;;14.32;;
42832;SDS011;64089;51.478;5.692;2023-02-13T06:23:01;37.67;;;14.88;;
42832;SDS011;64089;51.478;5.692;2023-02-13T06:25:26;38.42;;;15.48;;
42832;SDS011;64089;51.478;5.692;2023-02-13T06:27:52;37.72;;;14.02;;
42832;SDS011;64089;51.478;5.692;2023-02-13T06:30:18;39.55;;;14.70;;
42832;SDS011;64089;51.478;5.692;2023-02-13T06:32:45;34.78;;;13.32;;
42832;SDS011;64089;51.478;5.692;2023-02-13T06:35:12;31.58;;;12.95;;
42832;SDS011;64089;51.478;5.692;2023-02-13T06:37:38;33.70;;;13.40;;
42832;SDS011;64089;51.478;5.692;2023-02-13T06:40:05;35.33;;;13.98;;
42832;SDS011;64089;51.478;5.692;2023-02-13T06:42:31;34.85;;;13.98;;
42832;SDS011;64089;51.478;5.692;2023-02-13T06:44:57;34.95;;;13.98;;
42832;SDS011;64089;51.478;5.692;2023-02-13T06:47:23;43.00;;;15.35;;
42832;SDS011;64089;51.478;5.692;2023-02-13T06:49:49;38.10;;;13.43;;
42832;SDS011;64089;51.478;5.692;2023-02-13T06:52:14;36.17;;;14.50;;
42832;SDS011;64089;51.478;5.692;2023-02-13T06:54:40;40.20;;;15.38;;
42832;SDS011;64089;51.478;5.692;2023-02-13T06:57:05;40.83;;;15.35;;
42832;SDS011;64089;51.478;5.692;2023-02-13T06:59:31;40.47;;;15.32;;
42832;SDS011;64089;51.478;5.692;2023-02-13T07:01:57;42.40;;;15.23;;
42832;SDS011;64089;51.478;5.692;2023-02-13T07:04:22;40.30;;;16.75;;
42832;SDS011;64089;51.478;5.692;2023-02-13T07:06:48;43.47;;;17.05;;
42832;SDS011;64089;51.478;5.692;2023-02-13T07:09:13;49.83;;;17.90;;
42832;SDS011;64089;51.478;5.692;2023-02-13T07:11:40;47.05;;;17.42;;
42832;SDS011;64089;51.478;5.692;2023-02-13T07:14:06;45.97;;;16.00;;
42832;SDS011;64089;51.478;5.692;2023-02-13T07:16:33;40.05;;;15.15;;
42832;SDS011;64089;51.478;5.692;2023-02-13T07:18:58;40.50;;;14.75;;
42832;SDS011;64089;51.478;5.692;2023-02-13T07:21:24;45.10;;;15.07;;
42832;SDS011;64089;51.478;5.692;2023-02-13T07:23:50;38.45;;;14.57;;
42832;SDS011;64089;51.478;5.692;2023-02-13T07:26:16;41.58;;;15.52;;
42832;SDS011;64089;51.478;5.692;2023-02-13T07:28:42;40.15;;;15.27;;
42832;SDS011;64089;51.478;5.692;2023-02-13T07:31:07;41.95;;;14.18;;
42832;SDS011;64089;51.478;5.692;2023-02-13T07:33:33;35.47;;;14.13;;
42832;SDS011;64089;51.478;5.692;2023-02-13T07:35:59;36.65;;;14.70;;
42832;SDS011;64089;51.478;5.692;2023-02-13T07:38:27;40.42;;;15.52;;
42832;SDS011;64089;51.478;5.692;2023-02-13T07:40:54;43.22;;;15.82;;
42832;SDS011;64089;51.478;5.692;2023-02-13T07:43:28;36.30;;;14.65;;
42832;SDS011;64089;51.478;5.692;2023-02-13T07:46:01;37.25;;;14.90;;
42832;SDS011;64089;51.478;5.692;2023-02-13T07:48:27;36.88;;;15.40;;
42832;SDS011;64089;51.478;5.692;2023-02-13T07:51:03;44.75;;;16.10;;
42832;SDS011;64089;51.478;5.692;2023-02-13T07:53:29;45.85;;;16.67;;
42832;SDS011;64089;51.478;5.692;2023-02-13T07:55:55;36.10;;;13.60;;
42832;SDS011;64089;51.478;5.692;2023-02-13T07:58:21;37.38;;;15.60;;
42832;SDS011;64089;51.478;5.692;2023-02-13T08:00:46;44.95;;;15.15;;
42832;SDS011;64089;51.478;5.692;2023-02-13T08:03:12;35.10;;;15.48;;
42832;SDS011;64089;51.478;5.692;2023-02-13T08:05:38;38.30;;;14.52;;
42832;SDS011;64089;51.478;5.692;2023-02-13T08:08:04;38.42;;;14.25;;
42832;SDS011;64089;51.478;5.692;2023-02-13T08:10:31;38.97;;;15.32;;
42832;SDS011;64089;51.478;5.692;2023-02-13T08:13:15;42.47;;;15.30;;
42832;SDS011;64089;51.478;5.692;2023-02-13T08:15:41;80.05;;;30.98;;
42832;SDS011;64089;51.478;5.692;2023-02-13T08:18:11;99.35;;;37.80;;
42832;SDS011;64089;51.478;5.692;2023-02-13T08:20:36;179.45;;;62.45;;
42832;SDS011;64089;51.478;5.692;2023-02-13T08:23:03;161.98;;;58.60;;
42832;SDS011;64089;51.478;5.692;2023-02-13T08:25:30;47.90;;;19.40;;
42832;SDS011;64089;51.478;5.692;2023-02-13T08:27:55;42.50;;;15.20;;
42832;SDS011;64089;51.478;5.692;2023-02-13T08:30:21;40.45;;;14.48;;
42832;SDS011;64089;51.478;5.692;2023-02-13T08:32:47;32.95;;;13.82;;
42832;SDS011;64089;51.478;5.692;2023-02-13T08:35:13;36.10;;;12.65;;
42832;SDS011;64089;51.478;5.692;2023-02-13T08:37:38;36.58;;;14.10;;
42832;SDS011;64089;51.478;5.692;2023-02-13T08:40:04;28.02;;;13.90;;
42832;SDS011;64089;51.478;5.692;2023-02-13T08:42:30;32.28;;;13.98;;
42832;SDS011;64089;51.478;5.692;2023-02-13T08:44:56;37.65;;;13.05;;
42832;SDS011;64089;51.478;5.692;2023-02-13T08:47:21;32.03;;;13.35;;
42832;SDS011;64089;51.478;5.692;2023-02-13T08:49:47;29.77;;;12.35;;
42832;SDS011;64089;51.478;5.692;2023-02-13T08:52:12;35.00;;;14.55;;
42832;SDS011;64089;51.478;5.692;2023-02-13T08:54:38;32.42;;;13.73;;
42832;SDS011;64089;51.478;5.692;2023-02-13T08:57:03;36.88;;;14.90;;
42832;SDS011;64089;51.478;5.692;2023-02-13T08:59:29;28.73;;;13.52;;
42832;SDS011;64089;51.478;5.692;2023-02-13T09:01:55;35.00;;;15.07;;
42832;SDS011;64089;51.478;5.692;2023-02-13T09:04:21;38.38;;;16.77;;
42832;SDS011;64089;51.478;5.692;2023-02-13T09:06:47;39.13;;;16.45;;
42832;SDS011;64089;51.478;5.692;2023-02-13T09:09:13;35.10;;;15.15;;
42832;SDS011;64089;51.478;5.692;2023-02-13T09:11:39;89.80;;;39.45;;
42832;SDS011;64089;51.478;5.692;2023-02-13T09:14:05;117.55;;;45.88;;
42832;SDS011;64089;51.478;5.692;2023-02-13T09:16:31;126.60;;;49.65;;
42832;SDS011;64089;51.478;5.692;2023-02-13T09:18:56;141.55;;;54.75;;
42832;SDS011;64089;51.478;5.692;2023-02-13T09:21:22;83.80;;;30.58;;
42832;SDS011;64089;51.478;5.692;2023-02-13T09:23:48;44.22;;;17.50;;
42832;SDS011;64089;51.478;5.692;2023-02-13T09:26:15;40.55;;;15.93;;
42832;SDS011;64089;51.478;5.692;2023-02-13T09:28:42;32.97;;;15.65;;
42832;SDS011;64089;51.478;5.692;2023-02-13T09:31:08;42.65;;;15.85;;
42832;SDS011;64089;51.478;5.692;2023-02-13T09:33:39;36.70;;;14.60;;
42832;SDS011;64089;51.478;5.692;2023-02-13T09:36:05;25.25;;;12.90;;
42832;SDS011;64089;51.478;5.692;2023-02-13T09:38:33;35.95;;;14.25;;
42832;SDS011;64089;51.478;5.692;2023-02-13T09:41:00;27.15;;;13.05;;
42832;SDS011;64089;51.478;5.692;2023-02-13T09:43:36;34.50;;;13.70;;
42832;SDS011;64089;51.478;5.692;2023-02-13T09:46:13;41.28;;;16.17;;
42832;SDS011;64089;51.478;5.692;2023-02-13T09:48:46;39.83;;;13.77;;
42832;SDS011;64089;51.478;5.692;2023-02-13T09:51:16;34.83;;;16.23;;
42832;SDS011;64089;51.478;5.692;2023-02-13T09:53:52;38.20;;;14.77;;
42832;SDS011;64089;51.478;5.692;2023-02-13T09:59:49;39.65;;;15.55;;
42832;SDS011;64089;51.478;5.692;2023-02-13T10:02:15;38.08;;;16.45;;
42832;SDS011;64089;51.478;5.692;2023-02-13T10:05:16;39.45;;;15.70;;
42832;SDS011;64089;51.478;5.692;2023-02-13T10:10:44;45.05;;;16.25;;
42832;SDS011;64089;51.478;5.692;2023-02-13T10:18:28;35.13;;;15.32;;
42832;SDS011;64089;51.478;5.692;2023-02-13T10:21:01;35.13;;;14.45;;
42832;SDS011;64089;51.478;5.692;2023-02-13T10:23:33;30.20;;;13.52;;
42832;SDS011;64089;51.478;5.692;2023-02-13T10:26:05;35.08;;;14.02;;
42832;SDS011;64089;51.478;5.692;2023-02-13T10:28:40;38.45;;;13.82;;
42832;SDS011;64089;51.478;5.692;2023-02-13T10:31:47;30.65;;;13.73;;
42832;SDS011;64089;51.478;5.692;2023-02-13T10:34:15;32.63;;;13.73;;
42832;SDS011;64089;51.478;5.692;2023-02-13T10:36:45;30.33;;;12.50;;
42832;SDS011;64089;51.478;5.692;2023-02-13T10:39:28;30.27;;;11.98;;
42832;SDS011;64089;51.478;5.692;2023-02-13T11:01:16;25.83;;;10.77;;
42832;SDS011;64089;51.478;5.692;2023-02-13T11:03:47;33.05;;;11.60;;
42832;SDS011;64089;51.478;5.692;2023-02-13T11:06:24;21.80;;;10.00;;
42832;SDS011;64089;51.478;5.692;2023-02-13T11:08:49;24.63;;;10.00;;
42832;SDS011;64089;51.478;5.692;2023-02-13T11:11:31;21.70;;;11.13;;
42832;SDS011;64089;51.478;5.692;2023-02-13T11:14:12;28.45;;;10.07;;
42832;SDS011;64089;51.478;5.692;2023-02-13T11:16:42;26.52;;;11.38;;
42832;SDS011;64089;51.478;5.692;2023-02-13T11:19:21;25.08;;;11.20;;
42832;SDS011;64089;51.478;5.692;2023-02-13T11:21:47;22.77;;;9.80;;
42832;SDS011;64089;51.478;5.692;2023-02-13T11:24:20;21.58;;;9.95;;
42832;SDS011;64089;51.478;5.692;2023-02-13T11:27:01;24.73;;;9.85;;
42832;SDS011;64089;51.478;5.692;2023-02-13T11:29:33;22.42;;;11.23;;
42832;SDS011;64089;51.478;5.692;2023-02-13T11:32:01;22.90;;;10.43;;
42832;SDS011;64089;51.478;5.692;2023-02-13T11:34:42;20.63;;;10.15;;
42832;SDS011;64089;51.478;5.692;2023-02-13T11:39:38;23.23;;;10.82;;
42832;SDS011;64089;51.478;5.692;2023-02-13T11:42:15;25.13;;;9.70;;
42832;SDS011;64089;51.478;5.692;2023-02-13T11:44:48;22.73;;;9.13;;
42832;SDS011;64089;51.478;5.692;2023-02-13T11:47:16;25.02;;;10.73;;
42832;SDS011;64089;51.478;5.692;2023-02-13T11:50:06;22.73;;;9.40;;
42832;SDS011;64089;51.478;5.692;2023-02-13T11:52:55;21.48;;;9.30;;
42832;SDS011;64089;51.478;5.692;2023-02-13T11:58:42;20.75;;;9.88;;
42832;SDS011;64089;51.478;5.692;2023-02-13T12:01:08;21.35;;;9.65;;
42832;SDS011;64089;51.478;5.692;2023-02-13T12:04:34;24.27;;;10.73;;
42832;SDS011;64089;51.478;5.692;2023-02-13T12:09:28;24.65;;;10.35;;
42832;SDS011;64089;51.478;5.692;2023-02-13T12:11:56;18.98;;;9.65;;
42832;SDS011;64089;51.478;5.692;2023-02-13T12:14:26;20.13;;;9.68;;
42832;SDS011;64089;51.478;5.692;2023-02-13T12:17:04;23.45;;;9.93;;
42832;SDS011;64089;51.478;5.692;2023-02-13T12:19:43;22.38;;;9.65;;
42832;SDS011;64089;51.478;5.692;2023-02-13T12:36:20;18.85;;;8.45;;
42832;SDS011;64089;51.478;5.692;2023-02-13T12:41:22;21.08;;;9.13;;
42832;SDS011;64089;51.478;5.692;2023-02-13T12:49:16;18.60;;;8.48;;
42832;SDS011;64089;51.478;5.692;2023-02-13T12:51:49;24.15;;;8.52;;
42832;SDS011;64089;51.478;5.692;2023-02-13T12:55:18;18.77;;;9.55;;
42832;SDS011;64089;51.478;5.692;2023-02-13T13:13:42;21.70;;;9.90;;
42832;SDS011;64089;51.478;5.692;2023-02-13T13:16:38;20.95;;;9.63;;
42832;SDS011;64089;51.478;5.692;2023-02-13T13:22:25;20.50;;;10.05;;
42832;SDS011;64089;51.478;5.692;2023-02-13T13:27:36;28.63;;;10.85;;
42832;SDS011;64089;51.478;5.692;2023-02-13T13:30:25;24.77;;;9.98;;
42832;SDS011;64089;51.478;5.692;2023-02-13T13:33:03;23.45;;;10.75;;
42832;SDS011;64089;51.478;5.692;2023-02-13T13:35:35;17.60;;;9.25;;
42832;SDS011;64089;51.478;5.692;2023-02-13T13:38:17;21.45;;;8.80;;
42832;SDS011;64089;51.478;5.692;2023-02-13T13:41:16;17.15;;;8.30;;
42832;SDS011;64089;51.478;5.692;2023-02-13T13:49:36;18.08;;;9.07;;
42832;SDS011;64089;51.478;5.692;2023-02-13T13:52:31;17.52;;;8.40;;
42832;SDS011;64089;51.478;5.692;2023-02-13T13:54:58;19.00;;;9.07;;
42832;SDS011;64089;51.478;5.692;2023-02-13T14:07:32;19.55;;;9.38;;
42832;SDS011;64089;51.478;5.692;2023-02-13T14:09:59;19.60;;;7.15;;
42832;SDS011;64089;51.478;5.692;2023-02-13T14:14:54;15.88;;;8.20;;
42832;SDS011;64089;51.478;5.692;2023-02-13T14:20:18;21.92;;;9.68;;
42832;SDS011;64089;51.478;5.692;2023-02-13T14:25:47;20.00;;;8.45;;
42832;SDS011;64089;51.478;5.692;2023-02-13T14:28:17;18.33;;;8.45;;
42832;SDS011;64089;51.478;5.692;2023-02-13T14:30:48;22.42;;;9.70;;
42832;SDS011;64089;51.478;5.692;2023-02-13T14:33:25;15.40;;;8.48;;
42832;SDS011;64089;51.478;5.692;2023-02-13T14:36:06;14.15;;;7.45;;
42832;SDS011;64089;51.478;5.692;2023-02-13T14:38:41;16.65;;;7.82;;
42832;SDS011;64089;51.478;5.692;2023-02-13T14:41:25;16.20;;;7.30;;
42832;SDS011;64089;51.478;5.692;2023-02-13T14:44:30;17.20;;;8.05;;
42832;SDS011;64089;51.478;5.692;2023-02-13T14:46:57;21.38;;;7.95;;
42832;SDS011;64089;51.478;5.692;2023-02-13T14:49:26;18.15;;;8.15;;
42832;SDS011;64089;51.478;5.692;2023-02-13T14:51:56;19.77;;;8.48;;
42832;SDS011;64089;51.478;5.692;2023-02-13T14:59:47;15.50;;;8.88;;
42832;SDS011;64089;51.478;5.692;2023-02-13T15:02:26;22.15;;;8.80;;
42832;SDS011;64089;51.478;5.692;2023-02-13T15:05:11;17.13;;;8.00;;
42832;SDS011;64089;51.478;5.692;2023-02-13T15:07:46;18.77;;;8.10;;
42832;SDS011;64089;51.478;5.692;2023-02-13T15:13:11;18.50;;;8.90;;
42832;SDS011;64089;51.478;5.692;2023-02-13T15:15:59;19.77;;;9.18;;
42832;SDS011;64089;51.478;5.692;2023-02-13T15:18:29;19.65;;;9.85;;
42832;SDS011;64089;51.478;5.692;2023-02-13T15:20:59;21.92;;;8.93;;
42832;SDS011;64089;51.478;5.692;2023-02-13T15:23:27;20.48;;;9.00;;
42832;SDS011;64089;51.478;5.692;2023-02-13T15:26:02;15.40;;;8.20;;
42832;SDS011;64089;51.478;5.692;2023-02-13T15:28:29;18.15;;;8.52;;
42832;SDS011;64089;51.478;5.692;2023-02-13T15:31:02;16.85;;;8.23;;
42832;SDS011;64089;51.478;5.692;2023-02-13T15:33:46;18.25;;;9.27;;
42832;SDS011;64089;51.478;5.692;2023-02-13T15:36:21;28.15;;;10.82;;
42832;SDS011;64089;51.478;5.692;2023-02-13T15:39:00;22.27;;;9.63;;
42832;SDS011;64089;51.478;5.692;2023-02-13T15:41:31;23.67;;;8.95;;
42832;SDS011;64089;51.478;5.692;2023-02-13T15:44:00;16.88;;;8.88;;
42832;SDS011;64089;51.478;5.692;2023-02-13T15:46:28;18.50;;;8.73;;
42832;SDS011;64089;51.478;5.692;2023-02-13T15:48:59;20.60;;;9.20;;
42832;SDS011;64089;51.478;5.692;2023-02-13T15:51:30;15.57;;;8.52;;
42832;SDS011;64089;51.478;5.692;2023-02-13T15:54:03;18.00;;;8.55;;
42832;SDS011;64089;51.478;5.692;2023-02-13T15:56:45;20.38;;;9.18;;
42832;SDS011;64089;51.478;5.692;2023-02-13T15:59:12;21.02;;;9.90;;
42832;SDS011;64089;51.478;5.692;2023-02-13T16:01:39;19.50;;;9.15;;
42832;SDS011;64089;51.478;5.692;2023-02-13T16:04:11;15.93;;;8.03;;
42832;SDS011;64089;51.478;5.692;2023-02-13T16:06:40;34.28;;;8.73;;
42832;SDS011;64089;51.478;5.692;2023-02-13T16:09:20;22.95;;;9.13;;
42832;SDS011;64089;51.478;5.692;2023-02-13T16:11:54;14.20;;;8.13;;
42832;SDS011;64089;51.478;5.692;2023-02-13T16:14:24;15.65;;;8.88;;
42832;SDS011;64089;51.478;5.692;2023-02-13T16:19:30;20.40;;;8.50;;
42832;SDS011;64089;51.478;5.692;2023-02-13T16:22:14;20.85;;;8.90;;
42832;SDS011;64089;51.478;5.692;2023-02-13T16:24:49;15.15;;;8.32;;
42832;SDS011;64089;51.478;5.692;2023-02-13T16:27:17;20.73;;;7.70;;
42832;SDS011;64089;51.478;5.692;2023-02-13T16:29:53;18.50;;;9.32;;
42832;SDS011;64089;51.478;5.692;2023-02-13T16:32:28;18.17;;;8.45;;
42832;SDS011;64089;51.478;5.692;2023-02-13T16:35:15;21.02;;;9.15;;
42832;SDS011;64089;51.478;5.692;2023-02-13T16:37:55;17.92;;;9.75;;
42832;SDS011;64089;51.478;5.692;2023-02-13T16:40:31;19.02;;;9.65;;
42832;SDS011;64089;51.478;5.692;2023-02-13T16:48:40;21.08;;;9.68;;
42832;SDS011;64089;51.478;5.692;2023-02-13T16:51:07;14.85;;;8.02;;
42832;SDS011;64089;51.478;5.692;2023-02-13T16:53:34;18.90;;;10.05;;
42832;SDS011;64089;51.478;5.692;2023-02-13T16:56:00;18.23;;;9.50;;
42832;SDS011;64089;51.478;5.692;2023-02-13T16:58:29;22.95;;;9.52;;
42832;SDS011;64089;51.478;5.692;2023-02-13T17:00:54;16.77;;;8.10;;
42832;SDS011;64089;51.478;5.692;2023-02-13T17:03:20;24.13;;;9.18;;
42832;SDS011;64089;51.478;5.692;2023-02-13T17:05:46;17.85;;;9.27;;
42832;SDS011;64089;51.478;5.692;2023-02-13T17:08:11;19.80;;;9.50;;
42832;SDS011;64089;51.478;5.692;2023-02-13T17:10:38;19.00;;;9.45;;
42832;SDS011;64089;51.478;5.692;2023-02-13T17:15:35;19.65;;;9.35;;
42832;SDS011;64089;51.478;5.692;2023-02-13T17:18:01;27.73;;;9.77;;
42832;SDS011;64089;51.478;5.692;2023-02-13T17:20:28;18.38;;;8.68;;
42832;SDS011;64089;51.478;5.692;2023-02-13T17:22:59;19.90;;;9.85;;
42832;SDS011;64089;51.478;5.692;2023-02-13T17:25:33;25.92;;;10.82;;
42832;SDS011;64089;51.478;5.692;2023-02-13T17:28:01;21.33;;;9.48;;
42832;SDS011;64089;51.478;5.692;2023-02-13T17:30:31;22.08;;;9.95;;
42832;SDS011;64089;51.478;5.692;2023-02-13T17:35:31;21.98;;;11.57;;
42832;SDS011;64089;51.478;5.692;2023-02-13T17:37:56;21.30;;;10.27;;
42832;SDS011;64089;51.478;5.692;2023-02-13T17:40:23;24.67;;;11.05;;
42832;SDS011;64089;51.478;5.692;2023-02-13T17:42:52;23.23;;;10.50;;